sensor_id;sensor_type;location;lat;lon;timestamp;pressure;altitude;pressure_sealevel;temperature;humidity
15670;BME280;18524;45.190;5.732;2023-11-19T00:03:44;99947.16;;;9.00;100.00
15670;BME280;18524;45.190;5.732;2023-11-19T00:08:34;99935.03;;;8.99;100.00
15670;BME280;18524;45.190;5.732;2023-11-19T00:13:24;99934.56;;;8.92;100.00
15670;BME280;18524;45.190;5.732;2023-11-19T00:18:16;99925.41;;;8.99;100.00
15670;BME280;18524;45.190;5.732;2023-11-19T00:23:06;99915.97;;;8.97;100.00
15670;BME280;18524;45.190;5.732;2023-11-19T00:27:56;99913.88;;;8.88;100.00
15670;BME280;18524;45.190;5.732;2023-11-19T00:32:47;99918.00;;;8.92;100.00
15670;BME280;18524;45.190;5.732;2023-11-19T00:37:37;99921.19;;;8.83;100.00
15670;BME280;18524;45.190;5.732;2023-11-19T00:42:27;99919.13;;;8.73;100.00
15670;BME280;18524;45.190;5.732;2023-11-19T00:47:18;99931.88;;;8.50;100.00
15670;BME280;18524;45.190;5.732;2023-11-19T00:52:10;99920.19;;;8.41;100.00
15670;BME280;18524;45.190;5.732;2023-11-19T00:57:00;99923.50;;;8.29;100.00
15670;BME280;18524;45.190;5.732;2023-11-19T01:01:51;99922.38;;;8.19;100.00
15670;BME280;18524;45.190;5.732;2023-11-19T01:06:42;99918.47;;;8.26;100.00
15670;BME280;18524;45.190;5.732;2023-11-19T01:11:32;99901.28;;;8.22;100.00
15670;BME280;18524;45.190;5.732;2023-11-19T01:16:22;99907.19;;;8.25;100.00
15670;BME280;18524;45.190;5.732;2023-11-19T01:21:13;99901.44;;;8.34;100.00
15670;BME280;18524;45.190;5.732;2023-11-19T01:26:04;99887.44;;;8.35;100.00
15670;BME280;18524;45.190;5.732;2023-11-19T01:30:55;99883.66;;;8.25;100.00
15670;BME280;18524;45.190;5.732;2023-11-19T01:35:45;99886.38;;;8.24;100.00
15670;BME280;18524;45.190;5.732;2023-11-19T01:40:36;99877.31;;;8.29;100.00
15670;BME280;18524;45.190;5.732;2023-11-19T01:45:28;99881.53;;;8.32;100.00
15670;BME280;18524;45.190;5.732;2023-11-19T01:50:23;99880.88;;;8.28;100.00
15670;BME280;18524;45.190;5.732;2023-11-19T01:55:14;99883.09;;;8.20;100.00
15670;BME280;18524;45.190;5.732;2023-11-19T02:00:06;99875.13;;;8.37;100.00
15670;BME280;18524;45.190;5.732;2023-11-19T02:04:57;99878.84;;;8.48;100.00
15670;BME280;18524;45.190;5.732;2023-11-19T02:09:47;99880.34;;;8.52;100.00
15670;BME280;18524;45.190;5.732;2023-11-19T02:14:38;99876.06;;;8.51;100.00
15670;BME280;18524;45.190;5.732;2023-11-19T02:19:28;99881.09;;;8.54;100.00
15670;BME280;18524;45.190;5.732;2023-11-19T02:24:22;99872.69;;;8.49;100.00
15670;BME280;18524;45.190;5.732;2023-11-19T02:29:13;99873.84;;;8.59;100.00
15670;BME280;18524;45.190;5.732;2023-11-19T02:34:03;99875.34;;;8.63;100.00
15670;BME280;18524;45.190;5.732;2023-11-19T02:38:54;99879.59;;;8.50;100.00
15670;BME280;18524;45.190;5.732;2023-11-19T02:43:45;99886.22;;;8.41;100.00
15670;BME280;18524;45.190;5.732;2023-11-19T02:48:35;99882.72;;;8.26;100.00
15670;BME280;18524;45.190;5.732;2023-11-19T02:53:25;99871.00;;;8.48;100.00
15670;BME280;18524;45.190;5.732;2023-11-19T02:58:19;99872.19;;;8.28;100.00
15670;BME280;18524;45.190;5.732;2023-11-19T03:03:14;99876.19;;;8.19;100.00
15670;BME280;18524;45.190;5.732;2023-11-19T03:08:12;99874.28;;;8.07;100.00
15670;BME280;18524;45.190;5.732;2023-11-19T03:13:03;99879.09;;;7.99;100.00
15670;BME280;18524;45.190;5.732;2023-11-19T03:17:53;99878.66;;;8.06;100.00
15670;BME280;18524;45.190;5.732;2023-11-19T03:22:44;99877.97;;;8.19;100.00
15670;BME280;18524;45.190;5.732;2023-11-19T03:27:35;99867.25;;;8.23;100.00
15670;BME280;18524;45.190;5.732;2023-11-19T03:32:26;99862.22;;;8.04;100.00
15670;BME280;18524;45.190;5.732;2023-11-19T03:37:17;99858.69;;;8.05;100.00
15670;BME280;18524;45.190;5.732;2023-11-19T03:42:07;99865.13;;;8.14;100.00
15670;BME280;18524;45.190;5.732;2023-11-19T03:46:58;99857.75;;;7.92;100.00
15670;BME280;18524;45.190;5.732;2023-11-19T03:51:48;99854.31;;;8.06;100.00
15670;BME280;18524;45.190;5.732;2023-11-19T03:56:38;99847.94;;;7.96;100.00
15670;BME280;18524;45.190;5.732;2023-11-19T04:01:29;99849.25;;;7.89;100.00
15670;BME280;18524;45.190;5.732;2023-11-19T04:06:19;99849.34;;;7.87;100.00
15670;BME280;18524;45.190;5.732;2023-11-19T04:11:10;99859.78;;;7.87;100.00
15670;BME280;18524;45.190;5.732;2023-11-19T04:16:00;99859.88;;;7.86;100.00
15670;BME280;18524;45.190;5.732;2023-11-19T04:20:51;99862.31;;;7.73;100.00
15670;BME280;18524;45.190;5.732;2023-11-19T04:25:41;99864.34;;;7.68;100.00
15670;BME280;18524;45.190;5.732;2023-11-19T04:30:32;99865.66;;;7.91;100.00
15670;BME280;18524;45.190;5.732;2023-11-19T04:35:22;99860.25;;;7.94;100.00
15670;BME280;18524;45.190;5.732;2023-11-19T04:40:13;99858.19;;;7.84;100.00
15670;BME280;18524;45.190;5.732;2023-11-19T04:45:03;99852.06;;;8.00;100.00
15670;BME280;18524;45.190;5.732;2023-11-19T04:49:56;99852.06;;;8.00;100.00
15670;BME280;18524;45.190;5.732;2023-11-19T04:54:46;99841.53;;;8.01;100.00
15670;BME280;18524;45.190;5.732;2023-11-19T04:59:38;99844.41;;;7.97;100.00
15670;BME280;18524;45.190;5.732;2023-11-19T05:04:28;99833.41;;;7.92;100.00
15670;BME280;18524;45.190;5.732;2023-11-19T05:09:19;99825.94;;;8.00;100.00
15670;BME280;18524;45.190;5.732;2023-11-19T05:14:09;99823.81;;;8.06;100.00
15670;BME280;18524;45.190;5.732;2023-11-19T05:18:59;99832.47;;;7.93;100.00
15670;BME280;18524;45.190;5.732;2023-11-19T05:23:50;99829.03;;;7.76;100.00
15670;BME280;18524;45.190;5.732;2023-11-19T05:28:40;99819.81;;;7.71;100.00
15670;BME280;18524;45.190;5.732;2023-11-19T05:33:30;99823.13;;;7.59;100.00
15670;BME280;18524;45.190;5.732;2023-11-19T05:38:21;99815.25;;;7.74;100.00
15670;BME280;18524;45.190;5.732;2023-11-19T05:43:11;99818.28;;;7.82;100.00
15670;BME280;18524;45.190;5.732;2023-11-19T05:48:01;99821.00;;;7.65;100.00
15670;BME280;18524;45.190;5.732;2023-11-19T05:52:54;99819.06;;;7.69;100.00
15670;BME280;18524;45.190;5.732;2023-11-19T05:57:44;99811.09;;;7.86;100.00
15670;BME280;18524;45.190;5.732;2023-11-19T06:02:35;99820.91;;;7.67;100.00
15670;BME280;18524;45.190;5.732;2023-11-19T06:07:27;99817.59;;;7.49;100.00
15670;BME280;18524;45.190;5.732;2023-11-19T06:12:18;99821.44;;;7.58;100.00
15670;BME280;18524;45.190;5.732;2023-11-19T06:17:08;99805.06;;;7.70;100.00
15670;BME280;18524;45.190;5.732;2023-11-19T06:22:01;99807.97;;;7.79;100.00
15670;BME280;18524;45.190;5.732;2023-11-19T06:26:51;99800.38;;;7.61;100.00
15670;BME280;18524;45.190;5.732;2023-11-19T06:31:41;99791.78;;;7.89;100.00
15670;BME280;18524;45.190;5.732;2023-11-19T06:36:32;99787.78;;;7.97;100.00
15670;BME280;18524;45.190;5.732;2023-11-19T06:41:22;99791.03;;;7.87;100.00
15670;BME280;18524;45.190;5.732;2023-11-19T06:46:16;99796.22;;;7.72;100.00
15670;BME280;18524;45.190;5.732;2023-11-19T06:51:06;99794.72;;;7.68;100.00
15670;BME280;18524;45.190;5.732;2023-11-19T06:55:57;99797.38;;;7.52;100.00
15670;BME280;18524;45.190;5.732;2023-11-19T07:00:47;99800.03;;;7.67;100.00
15670;BME280;18524;45.190;5.732;2023-11-19T07:05:39;99804.09;;;7.57;100.00
15670;BME280;18524;45.190;5.732;2023-11-19T07:10:30;99804.94;;;7.57;100.00
15670;BME280;18524;45.190;5.732;2023-11-19T07:15:20;99801.53;;;7.71;100.00
15670;BME280;18524;45.190;5.732;2023-11-19T07:20:11;99800.78;;;7.69;100.00
15670;BME280;18524;45.190;5.732;2023-11-19T07:25:05;99794.91;;;7.79;100.00
15670;BME280;18524;45.190;5.732;2023-11-19T07:29:55;99793.66;;;7.87;100.00
15670;BME280;18524;45.190;5.732;2023-11-19T07:34:46;99793.41;;;8.20;100.00
15670;BME280;18524;45.190;5.732;2023-11-19T07:39:36;99779.63;;;8.46;100.00
15670;BME280;18524;45.190;5.732;2023-11-19T07:44:30;99788.59;;;8.56;100.00
15670;BME280;18524;45.190;5.732;2023-11-19T07:49:21;99799.19;;;8.82;100.00
15670;BME280;18524;45.190;5.732;2023-11-19T07:54:11;99786.88;;;9.11;100.00
15670;BME280;18524;45.190;5.732;2023-11-19T07:59:02;99789.19;;;9.15;100.00
15670;BME280;18524;45.190;5.732;2023-11-19T08:03:53;99795.19;;;9.44;100.00
15670;BME280;18524;45.190;5.732;2023-11-19T08:08:44;99803.56;;;9.49;100.00
15670;BME280;18524;45.190;5.732;2023-11-19T08:13:35;99814.13;;;9.75;100.00
15670;BME280;18524;45.190;5.732;2023-11-19T08:18:25;99814.13;;;9.87;100.00
15670;BME280;18524;45.190;5.732;2023-11-19T08:23:15;99818.69;;;10.11;100.00
15670;BME280;18524;45.190;5.732;2023-11-19T08:28:06;99825.31;;;10.29;100.00
15670;BME280;18524;45.190;5.732;2023-11-19T08:32:56;99830.22;;;10.59;100.00
15670;BME280;18524;45.190;5.732;2023-11-19T08:37:46;99832.81;;;10.72;100.00
15670;BME280;18524;45.190;5.732;2023-11-19T08:42:37;99822.34;;;10.59;100.00
15670;BME280;18524;45.190;5.732;2023-11-19T08:47:29;99828.22;;;10.62;100.00
15670;BME280;18524;45.190;5.732;2023-11-19T08:52:19;99834.00;;;10.68;100.00
15670;BME280;18524;45.190;5.732;2023-11-19T08:57:10;99830.16;;;10.97;99.00
15670;BME280;18524;45.190;5.732;2023-11-19T09:02:00;99821.47;;;11.44;97.16
15670;BME280;18524;45.190;5.732;2023-11-19T09:06:50;99819.50;;;11.83;92.59
15670;BME280;18524;45.190;5.732;2023-11-19T09:11:41;99817.22;;;12.25;91.68
15670;BME280;18524;45.190;5.732;2023-11-19T09:16:32;99812.34;;;12.53;91.19
15670;BME280;18524;45.190;5.732;2023-11-19T09:21:22;99805.63;;;12.83;88.37
15670;BME280;18524;45.190;5.732;2023-11-19T09:26:13;99795.06;;;12.94;87.72
15670;BME280;18524;45.190;5.732;2023-11-19T09:31:13;99800.16;;;13.29;87.26
15670;BME280;18524;45.190;5.732;2023-11-19T09:36:03;99803.69;;;13.51;84.98
15670;BME280;18524;45.190;5.732;2023-11-19T09:40:54;99797.59;;;13.71;82.60
15670;BME280;18524;45.190;5.732;2023-11-19T09:45:49;99792.88;;;13.86;82.37
15670;BME280;18524;45.190;5.732;2023-11-19T09:50:40;99799.31;;;13.93;83.66
15670;BME280;18524;45.190;5.732;2023-11-19T09:55:31;99787.72;;;14.05;82.82
15670;BME280;18524;45.190;5.732;2023-11-19T10:00:21;99787.84;;;14.24;81.03
15670;BME280;18524;45.190;5.732;2023-11-19T10:05:12;99773.28;;;14.51;78.45
15670;BME280;18524;45.190;5.732;2023-11-19T10:10:04;99776.00;;;14.80;76.55
15670;BME280;18524;45.190;5.732;2023-11-19T10:14:56;99768.34;;;14.86;75.62
15670;BME280;18524;45.190;5.732;2023-11-19T10:19:47;99765.66;;;15.26;73.25
15670;BME280;18524;45.190;5.732;2023-11-19T10:24:37;99751.31;;;15.48;72.00
15670;BME280;18524;45.190;5.732;2023-11-19T10:29:30;99749.53;;;15.78;70.56
15670;BME280;18524;45.190;5.732;2023-11-19T10:34:25;99732.78;;;15.97;70.26
15670;BME280;18524;45.190;5.732;2023-11-19T10:39:16;99711.06;;;16.30;68.64
15670;BME280;18524;45.190;5.732;2023-11-19T10:44:06;99712.34;;;16.53;68.00
15670;BME280;18524;45.190;5.732;2023-11-19T10:48:57;99716.63;;;16.74;66.64
15670;BME280;18524;45.190;5.732;2023-11-19T10:53:49;99710.66;;;17.07;65.53
15670;BME280;18524;45.190;5.732;2023-11-19T10:58:44;99701.63;;;17.36;65.12
15670;BME280;18524;45.190;5.732;2023-11-19T11:03:39;99695.19;;;17.56;63.72
15670;BME280;18524;45.190;5.732;2023-11-19T11:08:30;99698.09;;;17.89;62.81
15670;BME280;18524;45.190;5.732;2023-11-19T11:13:22;99681.94;;;18.16;61.73
15670;BME280;18524;45.190;5.732;2023-11-19T11:18:14;99674.75;;;18.34;60.52
15670;BME280;18524;45.190;5.732;2023-11-19T11:28:41;99671.25;;;18.76;59.67
15670;BME280;18524;45.190;5.732;2023-11-19T11:38:52;99674.28;;;19.22;58.82
15670;BME280;18524;45.190;5.732;2023-11-19T11:43:44;99672.16;;;19.42;57.97
15670;BME280;18524;45.190;5.732;2023-11-19T11:48:44;99663.16;;;19.43;57.16
15670;BME280;18524;45.190;5.732;2023-11-19T11:53:38;99666.66;;;19.35;57.73
15670;BME280;18524;45.190;5.732;2023-11-19T11:58:30;99668.63;;;19.25;57.32
15670;BME280;18524;45.190;5.732;2023-11-19T12:03:21;99654.66;;;19.31;57.61
15670;BME280;18524;45.190;5.732;2023-11-19T12:08:13;99643.56;;;19.35;57.55
15670;BME280;18524;45.190;5.732;2023-11-19T12:13:06;99647.22;;;19.34;58.03
15670;BME280;18524;45.190;5.732;2023-11-19T12:17:57;99634.56;;;19.36;58.78
15670;BME280;18524;45.190;5.732;2023-11-19T12:22:48;99627.59;;;19.35;59.08
15670;BME280;18524;45.190;5.732;2023-11-19T12:27:41;99631.22;;;19.26;58.70
15670;BME280;18524;45.190;5.732;2023-11-19T12:32:42;99611.81;;;19.10;58.90
15670;BME280;18524;45.190;5.732;2023-11-19T12:37:32;99615.59;;;18.91;59.55
15670;BME280;18524;45.190;5.732;2023-11-19T12:42:35;99612.44;;;18.79;59.23
15670;BME280;18524;45.190;5.732;2023-11-19T12:47:26;99603.78;;;18.61;60.42
15670;BME280;18524;45.190;5.732;2023-11-19T12:52:16;99602.56;;;18.55;60.92
15670;BME280;18524;45.190;5.732;2023-11-19T12:57:07;99591.94;;;18.47;60.87
15670;BME280;18524;45.190;5.732;2023-11-19T13:01:58;99593.56;;;18.32;62.49
15670;BME280;18524;45.190;5.732;2023-11-19T13:06:48;99587.69;;;18.12;63.37
15670;BME280;18524;45.190;5.732;2023-11-19T13:11:39;99571.41;;;17.99;64.97
15670;BME280;18524;45.190;5.732;2023-11-19T13:16:31;99572.69;;;17.87;63.65
15670;BME280;18524;45.190;5.732;2023-11-19T13:21:21;99574.81;;;17.83;64.39
15670;BME280;18524;45.190;5.732;2023-11-19T13:26:12;99571.63;;;17.79;64.38
15670;BME280;18524;45.190;5.732;2023-11-19T13:31:03;99573.31;;;17.80;64.27
15670;BME280;18524;45.190;5.732;2023-11-19T13:35:54;99559.69;;;17.75;64.95
15670;BME280;18524;45.190;5.732;2023-11-19T13:40:44;99562.91;;;17.87;65.32
15670;BME280;18524;45.190;5.732;2023-11-19T13:45:35;99559.44;;;17.95;65.52
15670;BME280;18524;45.190;5.732;2023-11-19T13:50:25;99561.94;;;17.96;65.67
15670;BME280;18524;45.190;5.732;2023-11-19T13:55:16;99562.94;;;17.95;66.68
15670;BME280;18524;45.190;5.732;2023-11-19T14:00:09;99559.94;;;17.98;65.70
15670;BME280;18524;45.190;5.732;2023-11-19T14:05:14;99548.81;;;17.95;66.88
15670;BME280;18524;45.190;5.732;2023-11-19T14:10:07;99556.34;;;17.73;68.87
15670;BME280;18524;45.190;5.732;2023-11-19T14:15:01;99557.28;;;17.64;69.48
15670;BME280;18524;45.190;5.732;2023-11-19T14:19:52;99570.25;;;17.67;70.44
15670;BME280;18524;45.190;5.732;2023-11-19T14:24:42;99565.06;;;17.58;71.52
15670;BME280;18524;45.190;5.732;2023-11-19T14:29:33;99565.56;;;17.61;72.64
15670;BME280;18524;45.190;5.732;2023-11-19T14:34:24;99566.72;;;17.59;73.47
15670;BME280;18524;45.190;5.732;2023-11-19T14:39:16;99565.53;;;17.53;74.36
15670;BME280;18524;45.190;5.732;2023-11-19T14:44:06;99566.88;;;17.57;74.22
15670;BME280;18524;45.190;5.732;2023-11-19T14:48:57;99582.59;;;17.50;72.73
15670;BME280;18524;45.190;5.732;2023-11-19T14:53:47;99575.63;;;17.49;71.94
15670;BME280;18524;45.190;5.732;2023-11-19T14:58:38;99575.88;;;17.38;74.61
15670;BME280;18524;45.190;5.732;2023-11-19T15:03:28;99585.81;;;17.10;78.65
15670;BME280;18524;45.190;5.732;2023-11-19T15:08:19;99587.63;;;17.10;79.58
15670;BME280;18524;45.190;5.732;2023-11-19T15:13:09;99586.03;;;16.99;82.70
15670;BME280;18524;45.190;5.732;2023-11-19T15:17:59;99589.34;;;17.01;83.04
15670;BME280;18524;45.190;5.732;2023-11-19T15:22:50;99589.13;;;16.95;82.76
15670;BME280;18524;45.190;5.732;2023-11-19T15:27:40;99585.53;;;16.78;83.57
15670;BME280;18524;45.190;5.732;2023-11-19T15:32:31;99593.94;;;16.64;84.32
15670;BME280;18524;45.190;5.732;2023-11-19T15:37:22;99609.28;;;16.70;82.72
15670;BME280;18524;45.190;5.732;2023-11-19T15:42:12;99604.78;;;16.52;84.28
15670;BME280;18524;45.190;5.732;2023-11-19T15:47:02;99595.31;;;16.50;84.65
15670;BME280;18524;45.190;5.732;2023-11-19T15:51:53;99600.69;;;16.40;86.28
15670;BME280;18524;45.190;5.732;2023-11-19T15:56:44;99599.84;;;16.40;88.92
15670;BME280;18524;45.190;5.732;2023-11-19T16:01:35;99594.03;;;16.36;89.92
15670;BME280;18524;45.190;5.732;2023-11-19T16:06:25;99599.91;;;16.30;91.77
15670;BME280;18524;45.190;5.732;2023-11-19T16:11:16;99603.13;;;16.24;91.59
15670;BME280;18524;45.190;5.732;2023-11-19T16:16:07;99613.97;;;16.31;89.62
15670;BME280;18524;45.190;5.732;2023-11-19T16:20:57;99611.69;;;16.18;90.29
15670;BME280;18524;45.190;5.732;2023-11-19T16:25:48;99606.53;;;16.16;94.25
15670;BME280;18524;45.190;5.732;2023-11-19T16:30:40;99620.50;;;16.09;94.13
15670;BME280;18524;45.190;5.732;2023-11-19T16:35:31;99620.50;;;16.09;97.91
15670;BME280;18524;45.190;5.732;2023-11-19T16:40:21;99621.94;;;16.03;96.01
15670;BME280;18524;45.190;5.732;2023-11-19T16:45:12;99625.78;;;16.09;93.51
15670;BME280;18524;45.190;5.732;2023-11-19T16:50:03;99633.06;;;16.07;95.10
15670;BME280;18524;45.190;5.732;2023-11-19T16:54:57;99631.38;;;16.06;95.13
15670;BME280;18524;45.190;5.732;2023-11-19T16:59:48;99625.25;;;16.05;95.43
15670;BME280;18524;45.190;5.732;2023-11-19T17:04:44;99633.91;;;15.98;96.31
15670;BME280;18524;45.190;5.732;2023-11-19T17:09:34;99636.31;;;15.91;96.79
15670;BME280;18524;45.190;5.732;2023-11-19T17:14:25;99644.47;;;15.70;97.65
15670;BME280;18524;45.190;5.732;2023-11-19T17:19:15;99640.72;;;15.63;99.24
15670;BME280;18524;45.190;5.732;2023-11-19T17:24:06;99639.91;;;15.62;98.48
15670;BME280;18524;45.190;5.732;2023-11-19T17:28:56;99645.59;;;15.58;98.66
15670;BME280;18524;45.190;5.732;2023-11-19T17:33:47;99633.59;;;15.54;99.40
15670;BME280;18524;45.190;5.732;2023-11-19T17:38:38;99643.91;;;15.47;100.00
15670;BME280;18524;45.190;5.732;2023-11-19T17:43:28;99637.69;;;15.39;100.00
15670;BME280;18524;45.190;5.732;2023-11-19T17:48:18;99652.88;;;15.27;100.00
15670;BME280;18524;45.190;5.732;2023-11-19T17:53:09;99658.56;;;15.22;100.00
15670;BME280;18524;45.190;5.732;2023-11-19T17:57:59;99656.75;;;15.13;100.00
15670;BME280;18524;45.190;5.732;2023-11-19T18:02:49;99660.25;;;15.04;100.00
15670;BME280;18524;45.190;5.732;2023-11-19T18:07:41;99659.13;;;14.97;100.00
15670;BME280;18524;45.190;5.732;2023-11-19T18:12:32;99661.22;;;14.93;100.00
15670;BME280;18524;45.190;5.732;2023-11-19T18:17:23;99661.06;;;14.85;100.00
15670;BME280;18524;45.190;5.732;2023-11-19T18:22:13;99667.44;;;14.83;100.00
15670;BME280;18524;45.190;5.732;2023-11-19T18:27:04;99664.84;;;14.92;100.00
15670;BME280;18524;45.190;5.732;2023-11-19T18:31:54;99665.25;;;14.88;100.00
15670;BME280;18524;45.190;5.732;2023-11-19T18:36:45;99665.09;;;14.70;100.00
15670;BME280;18524;45.190;5.732;2023-11-19T18:41:39;99655.19;;;14.53;100.00
15670;BME280;18524;45.190;5.732;2023-11-19T18:46:33;99649.47;;;14.48;100.00
15670;BME280;18524;45.190;5.732;2023-11-19T18:51:23;99650.31;;;14.48;100.00
15670;BME280;18524;45.190;5.732;2023-11-19T18:56:13;99642.19;;;14.30;100.00
15670;BME280;18524;45.190;5.732;2023-11-19T19:01:04;99645.09;;;14.27;100.00
15670;BME280;18524;45.190;5.732;2023-11-19T19:05:55;99648.72;;;14.36;100.00
15670;BME280;18524;45.190;5.732;2023-11-19T19:10:45;99663.69;;;14.16;100.00
15670;BME280;18524;45.190;5.732;2023-11-19T19:15:36;99665.28;;;14.07;100.00
15670;BME280;18524;45.190;5.732;2023-11-19T19:20:26;99669.13;;;13.94;100.00
15670;BME280;18524;45.190;5.732;2023-11-19T19:25:17;99677.63;;;14.07;100.00
15670;BME280;18524;45.190;5.732;2023-11-19T19:30:08;99668.13;;;14.16;100.00
15670;BME280;18524;45.190;5.732;2023-11-19T19:35:00;99665.41;;;14.06;100.00
15670;BME280;18524;45.190;5.732;2023-11-19T19:39:50;99667.44;;;13.93;100.00
15670;BME280;18524;45.190;5.732;2023-11-19T19:44:41;99662.66;;;13.77;100.00
15670;BME280;18524;45.190;5.732;2023-11-19T19:49:31;99658.59;;;13.73;100.00
15670;BME280;18524;45.190;5.732;2023-11-19T19:54:21;99660.16;;;13.75;100.00
15670;BME280;18524;45.190;5.732;2023-11-19T19:59:13;99660.41;;;13.72;100.00
15670;BME280;18524;45.190;5.732;2023-11-19T20:04:04;99656.44;;;13.57;100.00
15670;BME280;18524;45.190;5.732;2023-11-19T20:08:54;99663.56;;;13.66;100.00
15670;BME280;18524;45.190;5.732;2023-11-19T20:13:44;99655.41;;;13.69;100.00
15670;BME280;18524;45.190;5.732;2023-11-19T20:18:35;99670.53;;;13.47;100.00
15670;BME280;18524;45.190;5.732;2023-11-19T20:23:26;99675.22;;;13.43;100.00
15670;BME280;18524;45.190;5.732;2023-11-19T20:28:17;99674.25;;;13.44;100.00
15670;BME280;18524;45.190;5.732;2023-11-19T20:33:07;99672.97;;;13.38;100.00
15670;BME280;18524;45.190;5.732;2023-11-19T20:37:58;99677.38;;;13.38;100.00
15670;BME280;18524;45.190;5.732;2023-11-19T20:42:48;99669.38;;;13.39;100.00
15670;BME280;18524;45.190;5.732;2023-11-19T20:47:40;99675.66;;;13.27;100.00
15670;BME280;18524;45.190;5.732;2023-11-19T20:52:31;99668.19;;;13.32;100.00
15670;BME280;18524;45.190;5.732;2023-11-19T20:57:22;99675.47;;;13.19;100.00
15670;BME280;18524;45.190;5.732;2023-11-19T21:02:12;99686.16;;;13.06;100.00
15670;BME280;18524;45.190;5.732;2023-11-19T21:07:04;99672.97;;;13.06;100.00
15670;BME280;18524;45.190;5.732;2023-11-19T21:11:54;99664.53;;;12.92;100.00
15670;BME280;18524;45.190;5.732;2023-11-19T21:16:45;99674.78;;;12.74;100.00
15670;BME280;18524;45.190;5.732;2023-11-19T21:21:35;99668.03;;;12.81;100.00
15670;BME280;18524;45.190;5.732;2023-11-19T21:26:26;99667.66;;;12.86;100.00
15670;BME280;18524;45.190;5.732;2023-11-19T21:31:16;99676.78;;;12.81;100.00
15670;BME280;18524;45.190;5.732;2023-11-19T21:36:07;99676.81;;;12.70;100.00
15670;BME280;18524;45.190;5.732;2023-11-19T21:40:59;99677.06;;;12.67;100.00
15670;BME280;18524;45.190;5.732;2023-11-19T21:45:50;99681.75;;;12.64;100.00
15670;BME280;18524;45.190;5.732;2023-11-19T21:50:40;99687.63;;;12.45;100.00
15670;BME280;18524;45.190;5.732;2023-11-19T21:55:32;99693.13;;;12.42;100.00
15670;BME280;18524;45.190;5.732;2023-11-19T22:00:22;99693.63;;;12.36;100.00
15670;BME280;18524;45.190;5.732;2023-11-19T22:05:13;99694.56;;;12.46;100.00
15670;BME280;18524;45.190;5.732;2023-11-19T22:10:04;99693.03;;;12.32;100.00
15670;BME280;18524;45.190;5.732;2023-11-19T22:14:54;99700.19;;;12.41;100.00
15670;BME280;18524;45.190;5.732;2023-11-19T22:19:45;99695.41;;;12.35;100.00
15670;BME280;18524;45.190;5.732;2023-11-19T22:24:36;99699.38;;;12.30;100.00
15670;BME280;18524;45.190;5.732;2023-11-19T22:29:26;99696.25;;;12.36;100.00
15670;BME280;18524;45.190;5.732;2023-11-19T22:34:16;99699.94;;;12.22;100.00
15670;BME280;18524;45.190;5.732;2023-11-19T22:39:07;99707.00;;;12.10;100.00
15670;BME280;18524;45.190;5.732;2023-11-19T22:43:58;99704.50;;;12.20;100.00
15670;BME280;18524;45.190;5.732;2023-11-19T22:48:48;99699.00;;;12.12;100.00
15670;BME280;18524;45.190;5.732;2023-11-19T22:53:38;99704.03;;;11.93;100.00
15670;BME280;18524;45.190;5.732;2023-11-19T22:58:29;99698.28;;;11.99;100.00
15670;BME280;18524;45.190;5.732;2023-11-19T23:03:20;99697.69;;;12.06;100.00
15670;BME280;18524;45.190;5.732;2023-11-19T23:08:10;99700.19;;;11.97;100.00
15670;BME280;18524;45.190;5.732;2023-11-19T23:13:01;99710.56;;;11.87;100.00
15670;BME280;18524;45.190;5.732;2023-11-19T23:17:51;99706.00;;;11.78;100.00
15670;BME280;18524;45.190;5.732;2023-11-19T23:22:43;99702.16;;;11.71;100.00
15670;BME280;18524;45.190;5.732;2023-11-19T23:27:34;99701.31;;;11.70;100.00
15670;BME280;18524;45.190;5.732;2023-11-19T23:32:24;99699.28;;;11.74;100.00
15670;BME280;18524;45.190;5.732;2023-11-19T23:37:15;99700.63;;;11.79;100.00
15670;BME280;18524;45.190;5.732;2023-11-19T23:42:05;99693.44;;;11.59;100.00
15670;BME280;18524;45.190;5.732;2023-11-19T23:46:56;99685.06;;;11.54;100.00
15670;BME280;18524;45.190;5.732;2023-11-19T23:51:47;99688.28;;;11.57;100.00
15670;BME280;18524;45.190;5.732;2023-11-19T23:56:39;99688.53;;;11.54;100.00
